Main page
METAR-TAF:

METAR-TAF

Airports :

Renton Municipal Airport

Renton, Washington, United States

latitude: 47-29-40N, longitude: 122-12-46W, elevation: 26 ft

Current weather observation

The report was made 16 minutes ago, at 23:53 UTC
Calm wind
Temperature 70°F
Humidity 33%
Pressure 30.02 in. Hg
Visibility: 10 miles
Clear sky

METAR: KRNT 132353Z 00000KT 10SM CLR 21/04 A3002 RMK AO2 SLP171 T02110044 56009 $

Time: 17:09 (00:09 UTC)


TAF: missing

Weather observations and forecasts of more than 4000 airports (METAR and TAF reports).

The available stations are represented by yellow and red dots on the map.

Hover mouse over dot to see the name of the station.

Then click to see weather observations and forecasts.

To change the map : click on the green buttons with a black cross to zoom in, on the green button with a dash to zoom out, or on the green arrows for adjacent maps.


METAR-TAF: